createdAt,value
2019-03-28T00:01:52.498Z,65.56
2019-03-28T00:04:57.231Z,65.99
2019-03-28T00:08:01.998Z,66.41
2019-03-28T00:11:06.487Z,65.81
2019-03-28T00:14:11.225Z,65.82
2019-03-28T00:17:15.656Z,65.93
2019-03-28T00:20:20.094Z,65.82
2019-03-28T00:23:34.901Z,66.20
2019-03-28T00:26:39.669Z,66.14
2019-03-28T00:29:44.102Z,66.34
2019-03-28T00:32:48.566Z,66.64
2019-03-28T00:35:52.995Z,66.06
2019-03-28T00:38:57.432Z,66.38
2019-03-28T00:42:01.865Z,66.44
2019-03-28T00:45:08.372Z,67.08
2019-03-28T00:48:13.090Z,67.20
2019-03-28T00:51:17.820Z,66.43
2019-03-28T00:54:22.260Z,67.08
2019-03-28T00:57:26.690Z,68.14
2019-03-28T01:00:31.399Z,68.35
2019-03-28T01:03:36.332Z,68.17
2019-03-28T01:06:41.120Z,67.80
2019-03-28T01:09:45.560Z,67.86
2019-03-28T01:12:49.996Z,68.27
2019-03-28T01:15:54.740Z,68.58
2019-03-28T01:18:59.479Z,68.81
2019-03-28T01:22:03.903Z,68.00
2019-03-28T01:25:08.681Z,67.96
2019-03-28T01:28:13.686Z,66.90
2019-03-28T01:31:18.120Z,67.73
2019-03-28T01:34:22.559Z,68.45
2019-03-28T01:37:26.993Z,68.89
2019-03-28T01:40:31.779Z,69.08
2019-03-28T01:43:36.203Z,69.12
2019-03-28T01:46:40.926Z,69.41
2019-03-28T01:49:45.367Z,69.70
2019-03-28T01:52:49.797Z,69.83
2019-03-28T01:55:54.505Z,69.16
2019-03-28T01:58:59.502Z,68.62
2019-03-28T02:02:03.949Z,68.57
2019-03-28T02:05:08.651Z,68.55
2019-03-28T02:08:13.076Z,68.77
2019-03-28T02:11:17.512Z,68.70
2019-03-28T02:14:22.184Z,67.87
2019-03-28T02:17:26.623Z,68.85
2019-03-28T02:20:31.065Z,68.23
2019-03-28T02:23:36.236Z,68.97
2019-03-28T02:26:41.001Z,69.34
2019-03-28T02:29:45.724Z,70.18
2019-03-28T02:32:50.453Z,70.32
2019-03-28T02:35:54.884Z,70.23
2019-03-28T02:38:59.311Z,69.68
2019-03-28T02:42:03.752Z,69.72
2019-03-28T02:45:08.604Z,69.44
2019-03-28T02:48:13.293Z,69.46
2019-03-28T02:51:18.064Z,68.71
2019-03-28T02:54:22.495Z,69.97
2019-03-28T02:57:40.174Z,69.08
2019-03-28T03:00:33.448Z,69.25
2019-03-28T03:03:37.862Z,69.52
2019-03-28T03:06:42.300Z,69.36
2019-03-28T03:09:46.740Z,68.69
2019-03-28T03:12:51.174Z,68.77
2019-03-28T03:15:56.759Z,69.55
2019-03-28T03:19:01.571Z,69.63
2019-03-28T03:22:06.353Z,70.04
2019-03-28T03:25:11.703Z,70.46
2019-03-28T03:28:16.428Z,70.20
2019-03-28T03:31:22.073Z,70.18
2019-03-28T03:34:27.080Z,70.43
2019-03-28T03:37:31.544Z,70.45
2019-03-28T03:40:35.986Z,70.06
2019-03-28T03:43:40.710Z,69.47
2019-03-28T03:46:45.141Z,69.17
2019-03-28T03:49:49.580Z,69.14
2019-03-28T03:52:54.021Z,69.83
2019-03-28T03:55:58.449Z,69.50
2019-03-28T03:59:02.886Z,69.60
2019-03-28T04:02:07.311Z,69.55
2019-03-28T04:05:12.650Z,68.62
2019-03-28T04:08:17.163Z,69.13
2019-03-28T04:11:21.947Z,69.36
2019-03-28T04:14:26.674Z,70.01
2019-03-28T04:17:31.105Z,69.68
2019-03-28T04:20:35.601Z,69.78
2019-03-28T04:23:40.354Z,69.50
2019-03-28T04:26:45.082Z,70.75
2019-03-28T04:29:49.821Z,70.29
2019-03-28T04:32:54.258Z,70.09
2019-03-28T04:35:58.686Z,70.83
2019-03-28T04:39:05.136Z,70.72
2019-03-28T04:42:09.566Z,71.38
2019-03-28T04:45:14.002Z,71.36
2019-03-28T04:48:18.712Z,70.91
2019-03-28T04:51:23.206Z,70.90
2019-03-28T04:54:27.966Z,70.60
2019-03-28T04:57:32.397Z,69.81
2019-03-28T05:00:36.834Z,70.25
2019-03-28T05:03:41.268Z,70.38
2019-03-28T05:06:45.696Z,70.29
2019-03-28T05:09:50.353Z,69.59
2019-03-28T05:12:55.121Z,69.75
2019-03-28T05:15:59.859Z,70.39
2019-03-28T05:19:04.584Z,69.77
2019-03-28T05:22:09.022Z,69.53
2019-03-28T05:25:13.453Z,70.33
2019-03-28T05:28:18.165Z,69.86
2019-03-28T05:31:22.591Z,70.75
2019-03-28T05:34:27.036Z,70.60
2019-03-28T05:37:31.489Z,70.27
2019-03-28T05:40:36.602Z,70.60
2019-03-28T05:43:41.302Z,71.00
2019-03-28T05:46:45.789Z,71.02
2019-03-28T05:49:50.563Z,72.29
2019-03-28T05:52:55.290Z,71.87
2019-03-28T05:55:59.721Z,72.21
2019-03-28T05:59:10.819Z,72.35
2019-03-28T06:02:10.588Z,72.09
2019-03-28T06:05:15.747Z,71.81
2019-03-28T06:08:20.200Z,71.42
2019-03-28T06:11:24.901Z,71.24
2019-03-28T06:14:29.637Z,70.84
2019-03-28T06:17:34.366Z,70.06
2019-03-28T06:20:38.802Z,67.17
2019-03-28T06:23:43.238Z,64.36
2019-03-28T06:26:49.946Z,60.75
2019-03-28T06:29:54.111Z,55.79
2019-03-28T06:32:59.103Z,50.68
2019-03-28T06:36:03.886Z,45.37
2019-03-28T06:39:08.328Z,43.01
2019-03-28T06:42:12.768Z,41.32
2019-03-28T06:45:17.557Z,39.26
2019-03-28T06:48:22.005Z,36.64
2019-03-28T06:51:26.714Z,36.31
2019-03-28T06:54:31.468Z,35.09
2019-03-28T06:57:36.176Z,33.58
2019-03-28T07:00:40.646Z,30.92
2019-03-28T07:03:47.370Z,30.92
2019-03-28T07:06:51.796Z,30.46
2019-03-28T07:09:56.250Z,30.16
2019-03-28T07:13:00.962Z,29.61
2019-03-28T07:16:05.797Z,30.65
2019-03-28T07:19:10.237Z,31.14
2019-03-28T07:22:14.756Z,30.91
2019-03-28T07:25:19.477Z,30.53
2019-03-28T07:28:23.907Z,31.79
2019-03-28T07:31:28.353Z,34.57
2019-03-28T07:34:33.055Z,37.17
2019-03-28T07:37:38.549Z,39.28
2019-03-28T07:40:43.537Z,41.63
2019-03-28T07:43:47.984Z,44.48
2019-03-28T07:46:52.438Z,46.24
2019-03-28T07:49:56.955Z,48.58
2019-03-28T07:53:01.388Z,48.46
2019-03-28T07:56:06.164Z,49.32
2019-03-28T07:59:10.890Z,50.31
2019-03-28T08:02:15.328Z,50.88
2019-03-28T08:05:19.840Z,52.02
2019-03-28T08:08:24.568Z,53.52
2019-03-28T08:11:29.334Z,52.70
2019-03-28T08:14:33.791Z,53.94
2019-03-28T08:17:38.222Z,52.75
2019-03-28T08:20:42.688Z,53.70
2019-03-28T08:23:47.420Z,55.23
2019-03-28T08:26:51.852Z,54.17
2019-03-28T08:29:57.859Z,54.06
2019-03-28T08:33:04.160Z,54.05
2019-03-28T08:36:08.695Z,53.40
2019-03-28T08:39:13.410Z,52.17
2019-03-28T08:42:17.867Z,51.90
2019-03-28T08:45:22.685Z,50.21
2019-03-28T08:48:27.405Z,50.99
2019-03-28T08:51:32.882Z,49.31
2019-03-28T08:54:37.581Z,48.87
2019-03-28T08:57:42.023Z,49.17
2019-03-28T09:00:52.442Z,48.38
2019-03-28T09:03:53.311Z,48.47
2019-03-28T09:06:57.761Z,46.57
2019-03-28T09:10:02.197Z,45.45
2019-03-28T09:13:06.652Z,46.55
2019-03-28T09:16:11.140Z,46.48
2019-03-28T09:19:15.620Z,48.25
2019-03-28T09:22:20.359Z,45.77
2019-03-28T09:25:24.795Z,45.62
2019-03-28T09:28:29.516Z,43.14
2019-03-28T09:31:33.960Z,43.09
2019-03-28T09:34:38.671Z,43.69
2019-03-28T09:37:43.118Z,43.73
2019-03-28T09:40:47.936Z,42.23
2019-03-28T09:43:55.523Z,42.10
2019-03-28T09:46:58.829Z,45.67
2019-03-28T09:50:03.837Z,41.87
2019-03-28T09:53:08.288Z,41.88
2019-03-28T09:56:12.727Z,42.50
2019-03-28T09:59:17.170Z,39.90
2019-03-28T10:02:21.612Z,40.68
2019-03-28T10:05:26.050Z,38.86
2019-03-28T10:08:30.497Z,38.20
2019-03-28T10:11:35.244Z,39.61
2019-03-28T10:14:39.676Z,38.67
2019-03-28T10:17:44.394Z,38.14
2019-03-28T10:20:48.838Z,38.54
2019-03-28T10:23:53.286Z,38.49
2019-03-28T10:26:58.075Z,41.58
2019-03-28T10:30:08.310Z,42.03
2019-03-28T10:33:13.381Z,42.35
2019-03-28T10:36:17.817Z,44.85
2019-03-28T10:39:22.307Z,42.58
2019-03-28T10:42:26.798Z,40.34
2019-03-28T10:45:33.591Z,41.18
2019-03-28T10:48:37.874Z,42.01
2019-03-28T10:51:42.386Z,41.18
2019-03-28T10:54:46.861Z,38.76
2019-03-28T10:57:51.666Z,41.14
2019-03-28T11:00:56.532Z,41.09
2019-03-28T11:04:01.314Z,38.49
2019-03-28T11:07:05.800Z,40.18
2019-03-28T11:10:10.439Z,38.59
2019-03-28T11:13:14.939Z,37.95
2019-03-28T11:16:19.408Z,37.42
2019-03-28T11:19:23.902Z,36.94
2019-03-28T11:22:28.378Z,38.19
2019-03-28T11:25:32.919Z,39.94
2019-03-28T11:28:37.740Z,39.42
2019-03-28T11:31:47.768Z,39.88
2019-03-28T11:34:48.425Z,39.21
2019-03-28T11:37:52.909Z,39.26
2019-03-28T11:40:57.386Z,38.27
2019-03-28T11:44:01.871Z,38.44
2019-03-28T11:47:06.636Z,38.14
2019-03-28T11:50:12.021Z,38.37
2019-03-28T11:53:16.639Z,37.21
2019-03-28T11:56:21.441Z,38.74
2019-03-28T11:59:25.932Z,35.73
2019-03-28T12:02:30.723Z,34.67
2019-03-28T12:05:35.176Z,36.25
2019-03-28T12:08:39.664Z,35.84
2019-03-28T12:11:44.139Z,33.24
2019-03-28T12:14:48.625Z,36.70
2019-03-28T12:17:53.106Z,35.64
2019-03-28T12:20:57.581Z,37.06
2019-03-28T12:24:02.068Z,36.72
2019-03-28T12:27:06.559Z,35.53
2019-03-28T12:30:15.791Z,36.86
2019-03-28T12:33:19.546Z,37.45
2019-03-28T12:36:24.274Z,38.34
2019-03-28T12:39:28.922Z,38.74
2019-03-28T12:42:33.403Z,38.67
2019-03-28T12:45:37.880Z,38.25
2019-03-28T12:48:42.362Z,40.13
2019-03-28T12:51:47.220Z,39.13
2019-03-28T12:54:52.042Z,40.55
2019-03-28T12:57:56.789Z,42.79
2019-03-28T13:01:02.015Z,42.52
2019-03-28T13:04:06.577Z,39.76
2019-03-28T13:07:11.386Z,40.28
2019-03-28T13:10:16.111Z,40.15
2019-03-28T13:13:20.943Z,40.07
2019-03-28T13:16:25.428Z,41.16
2019-03-28T13:19:29.910Z,41.26
2019-03-28T13:22:34.378Z,40.69
2019-03-28T13:25:38.858Z,40.96
2019-03-28T13:28:43.339Z,41.34
2019-03-28T13:31:47.810Z,42.04
2019-03-28T13:34:52.795Z,41.79
2019-03-28T13:37:57.767Z,41.82
2019-03-28T13:41:02.254Z,41.37
2019-03-28T13:44:06.741Z,42.12
2019-03-28T13:47:11.544Z,42.64
2019-03-28T13:50:18.071Z,42.85
2019-03-28T13:53:22.851Z,43.57
2019-03-28T13:56:27.686Z,44.70
2019-03-28T13:59:35.226Z,44.12
2019-03-28T14:02:38.369Z,42.92
2019-03-28T14:05:43.102Z,43.08
2019-03-28T14:08:47.602Z,42.52
2019-03-28T14:11:52.075Z,41.20
2019-03-28T14:14:56.564Z,41.64
2019-03-28T14:18:01.027Z,41.19
2019-03-28T14:21:05.582Z,40.83
2019-03-28T14:24:11.729Z,40.25
2019-03-28T14:27:16.278Z,41.18
2019-03-28T14:30:20.765Z,42.12
2019-03-28T14:33:27.178Z,40.52
2019-03-28T14:36:31.944Z,41.57
2019-03-28T14:39:36.427Z,41.19
2019-03-28T14:42:41.213Z,39.83
2019-03-28T14:45:45.770Z,42.13
2019-03-28T14:48:50.671Z,41.81
2019-03-28T14:51:55.395Z,43.36
2019-03-28T14:55:01.463Z,43.03
2019-03-28T14:58:07.558Z,43.25
2019-03-28T15:01:12.032Z,43.30
2019-03-28T15:04:16.778Z,45.16
2019-03-28T15:07:21.257Z,44.24
2019-03-28T15:10:25.742Z,44.25
2019-03-28T15:13:30.215Z,45.12
2019-03-28T15:16:34.987Z,45.62
2019-03-28T15:19:39.469Z,45.54
2019-03-28T15:22:43.941Z,45.35
2019-03-28T15:25:48.429Z,46.33
2019-03-28T15:28:53.189Z,46.63
2019-03-28T15:31:57.667Z,47.17
2019-03-28T15:35:02.446Z,46.01
2019-03-28T15:38:06.916Z,45.67
2019-03-28T15:41:11.701Z,46.55
2019-03-28T15:44:16.249Z,46.37
2019-03-28T15:47:21.058Z,47.91
2019-03-28T15:50:25.543Z,47.79
2019-03-28T15:53:30.017Z,48.02
2019-03-28T15:56:34.494Z,47.30
2019-03-28T15:59:38.973Z,47.92
2019-03-28T16:02:43.461Z,47.92
2019-03-28T16:05:58.106Z,48.64
2019-03-28T16:08:54.518Z,48.06
2019-03-28T16:12:02.857Z,46.94
2019-03-28T16:15:09.087Z,46.47
2019-03-28T16:18:14.029Z,47.46
2019-03-28T16:21:19.465Z,47.15
2019-03-28T16:24:24.483Z,47.04
2019-03-28T16:27:29.319Z,46.93
2019-03-28T16:30:37.638Z,47.26
2019-03-28T16:33:42.464Z,48.49
2019-03-28T16:36:46.948Z,48.72
2019-03-28T16:39:51.431Z,48.33
2019-03-28T16:42:55.931Z,49.25
2019-03-28T16:46:00.403Z,49.56
2019-03-28T16:49:04.884Z,50.11
2019-03-28T16:52:09.363Z,49.75
2019-03-28T16:55:25.834Z,49.51
2019-03-28T16:58:20.469Z,50.37
2019-03-28T17:01:25.252Z,49.95
2019-03-28T17:04:30.081Z,49.66
2019-03-28T17:07:36.720Z,49.41
2019-03-28T17:10:50.178Z,50.22
2019-03-28T17:13:54.656Z,50.46
2019-03-28T17:16:59.563Z,50.72
2019-03-28T17:20:05.183Z,50.60
2019-03-28T17:23:10.038Z,50.85
2019-03-28T17:26:14.875Z,51.21
2019-03-28T17:29:19.922Z,52.00
2019-03-28T17:32:24.745Z,52.17
2019-03-28T17:35:29.816Z,52.35
2019-03-28T17:38:34.474Z,52.28
2019-03-28T17:41:39.256Z,52.30
2019-03-28T17:44:43.785Z,52.71
2019-03-28T17:47:48.281Z,53.00
2019-03-28T17:50:53.034Z,53.17
2019-03-28T17:53:57.734Z,54.33
2019-03-28T17:57:02.597Z,54.60
2019-03-28T18:00:09.183Z,54.37
2019-03-28T18:03:14.104Z,55.18
2019-03-28T18:06:18.576Z,54.95
2019-03-28T18:09:23.057Z,55.06
2019-03-28T18:12:29.625Z,54.80
2019-03-28T18:15:34.356Z,55.06
2019-03-28T18:18:38.938Z,55.76
2019-03-28T18:21:45.143Z,55.81
2019-03-28T18:24:49.710Z,56.12
2019-03-28T18:27:54.200Z,56.87
2019-03-28T18:30:58.686Z,57.05
2019-03-28T18:34:03.453Z,57.85
2019-03-28T18:37:08.386Z,57.71
2019-03-28T18:40:13.203Z,58.07
2019-03-28T18:43:17.684Z,57.61
2019-03-28T18:46:22.486Z,56.94
2019-03-28T18:49:27.319Z,56.93
2019-03-28T18:52:31.790Z,57.20
2019-03-28T18:55:36.262Z,56.58
2019-03-28T18:58:40.750Z,56.82
2019-03-28T19:01:45.217Z,56.35
2019-03-28T19:04:49.705Z,57.13
2019-03-28T19:07:54.181Z,57.15
2019-03-28T19:10:58.655Z,57.26
2019-03-28T19:14:03.432Z,57.39
2019-03-28T19:17:08.060Z,57.80
2019-03-28T19:20:12.685Z,57.28
2019-03-28T19:23:17.509Z,57.60
2019-03-28T19:26:22.158Z,57.55
2019-03-28T19:29:26.653Z,57.19
2019-03-28T19:32:31.133Z,57.22
2019-03-28T19:35:36.752Z,57.06
2019-03-28T19:38:42.181Z,57.24
2019-03-28T19:41:47.369Z,57.76
2019-03-28T19:44:52.998Z,57.76
2019-03-28T19:47:57.548Z,57.11
2019-03-28T19:51:02.256Z,56.86
2019-03-28T19:54:07.073Z,56.60
2019-03-28T19:57:12.378Z,56.79
2019-03-28T20:00:18.025Z,57.11
2019-03-28T20:03:23.590Z,57.12
2019-03-28T20:06:28.456Z,57.71
2019-03-28T20:09:32.944Z,57.12
2019-03-28T20:12:37.425Z,58.03
2019-03-28T20:15:41.905Z,58.22
2019-03-28T20:18:46.656Z,58.47
2019-03-28T20:21:51.486Z,58.71
2019-03-28T20:24:58.261Z,59.20
2019-03-28T20:28:02.982Z,59.01
2019-03-28T20:31:07.544Z,58.67
2019-03-28T20:34:12.358Z,58.91
2019-03-28T20:37:16.835Z,59.17
2019-03-28T20:40:21.382Z,59.22
2019-03-28T20:43:26.267Z,59.53
2019-03-28T20:46:31.322Z,59.55
2019-03-28T20:49:35.808Z,59.51
2019-03-28T20:52:40.646Z,59.78
2019-03-28T20:55:45.470Z,59.78
2019-03-28T20:58:49.986Z,60.15
2019-03-28T21:01:54.471Z,60.70
2019-03-28T21:04:59.359Z,60.87
2019-03-28T21:08:04.461Z,61.36
2019-03-28T21:11:08.943Z,61.19
2019-03-28T21:14:13.436Z,61.29
2019-03-28T21:17:18.177Z,61.77
2019-03-28T21:20:23.015Z,61.78
2019-03-28T21:23:27.844Z,61.91
2019-03-28T21:26:32.539Z,61.75
2019-03-28T21:29:48.294Z,61.46
2019-03-28T21:32:54.657Z,61.94
2019-03-28T21:35:49.905Z,62.40
2019-03-28T21:38:54.638Z,62.42
2019-03-28T21:41:59.093Z,62.40
2019-03-28T21:45:03.915Z,62.32
2019-03-28T21:48:08.358Z,62.09
2019-03-28T21:51:13.154Z,62.26
2019-03-28T21:54:17.575Z,62.34
2019-03-28T21:57:22.299Z,62.53
2019-03-28T22:00:27.034Z,62.37
2019-03-28T22:03:31.467Z,62.17
2019-03-28T22:06:42.695Z,62.34
2019-03-28T22:09:42.350Z,62.43
2019-03-28T22:12:46.791Z,63.57
2019-03-28T22:15:51.502Z,64.20
2019-03-28T22:18:55.933Z,63.91
2019-03-28T22:22:01.959Z,64.34
2019-03-28T22:25:07.632Z,64.17
2019-03-28T22:28:12.062Z,64.61
2019-03-28T22:31:16.538Z,64.11
2019-03-28T22:34:20.979Z,63.76
2019-03-28T22:37:25.745Z,63.04
2019-03-28T22:40:30.322Z,62.31
2019-03-28T22:43:38.610Z,61.56
2019-03-28T22:46:42.186Z,62.02
2019-03-28T22:49:46.637Z,61.86
2019-03-28T22:52:51.928Z,62.34
2019-03-28T22:55:56.687Z,62.93
2019-03-28T22:59:01.207Z,63.09
2019-03-28T23:02:05.781Z,63.50
2019-03-28T23:05:11.129Z,64.08
2019-03-28T23:08:15.583Z,64.54
2019-03-28T23:11:20.041Z,64.65
2019-03-28T23:14:24.467Z,64.84
2019-03-28T23:17:28.909Z,64.65
2019-03-28T23:20:33.851Z,64.77
2019-03-28T23:23:38.470Z,64.62
2019-03-28T23:26:42.918Z,64.10
2019-03-28T23:29:47.614Z,64.03
2019-03-28T23:32:52.052Z,64.22
2019-03-28T23:35:56.758Z,64.25
2019-03-28T23:39:01.188Z,64.06
2019-03-28T23:42:05.631Z,63.67
2019-03-28T23:45:12.199Z,63.81
2019-03-28T23:48:16.912Z,63.83
2019-03-28T23:51:21.641Z,64.37
2019-03-28T23:54:27.015Z,64.00
2019-03-28T23:57:31.800Z,64.14
